Time;durP1;ratioP1;P1;durP2;ratioP2;P2;SDS_P1;SDS_P2;PMS_P1;PMS_P2;Temp;Humidity;BMP_temperature;BMP_pressure;BME280_temperature;BME280_humidity;BME280_pressure;Samples;Min_cycle;Max_cycle;Signal;HPM_P1;HPM_P2
2022/07/02 00:00:41;;;;;;;4.93;2.23;;;15.30;99.90;;;;;;5158297;27;20092;-80
2022/07/02 00:03:09;;;;;;;5.23;2.20;;;15.60;99.90;;;;;;5158213;27;20487;-81
2022/07/02 00:05:38;;;;;;;4.63;2.20;;;14.80;99.90;;;;;;5158169;27;20049;-80
2022/07/02 00:08:05;;;;;;;6.82;2.13;;;15.20;99.90;;;;;;5139549;27;20066;-80
2022/07/02 00:10:31;;;;;;;;;;;15.10;99.90;;;;;;5140199;27;20439;-80
2022/07/02 00:12:57;;;;;;;6.18;2.40;;;14.90;99.90;;;;;;5139821;27;20005;-79
2022/07/02 00:15:22;;;;;;;3.00;2.03;;;14.80;99.90;;;;;;5158163;27;20082;-79
2022/07/02 00:17:49;;;;;;;4.83;2.40;;;15.00;99.90;;;;;;5139595;27;20043;-79
2022/07/02 00:20:15;;;;;;;;;;;14.90;99.90;;;;;;5158217;27;20049;-79
2022/07/02 00:22:43;;;;;;;4.45;2.03;;;15.00;99.90;;;;;;5157822;27;19919;-79
2022/07/02 00:25:09;;;;;;;4.38;2.13;;;14.80;99.90;;;;;;5156907;27;20034;-79
2022/07/02 00:27:39;;;;;;;3.67;1.83;;;14.90;99.90;;;;;;5157640;27;20038;-79
2022/07/02 00:30:05;;;;;;;3.75;2.40;;;15.10;99.90;;;;;;5157714;27;20375;-80
2022/07/02 00:32:33;;;;;;;3.40;2.20;;;14.90;99.90;;;;;;5139505;27;20035;-79
2022/07/02 00:35:04;;;;;;;4.50;2.30;;;15.50;99.90;;;;;;5157573;27;20039;-79
2022/07/02 00:37:31;;;;;;;5.57;2.17;;;15.00;99.90;;;;;;5158138;27;20126;-79
2022/07/02 00:39:56;;;;;;;4.05;2.40;;;15.30;99.90;;;;;;5139190;27;20378;-79
2022/07/02 00:42:24;;;;;;;3.92;2.33;;;15.70;99.90;;;;;;5157580;27;20042;-79
2022/07/02 00:44:50;;;;;;;4.78;2.58;;;;;;;;;;5139199;27;20047;-80
2022/07/02 00:47:19;;;;;;;3.50;2.20;;;14.70;99.90;;;;;;5157424;27;20061;-79
2022/07/02 00:49:46;;;;;;;4.07;2.30;;;14.70;99.90;;;;;;5157246;27;20047;-80
2022/07/02 00:52:11;;;;;;;;;;;14.70;99.90;;;;;;5139692;27;20039;-79
2022/07/02 00:54:37;;;;;;;5.13;2.30;;;14.60;99.90;;;;;;5157434;27;20415;-79
2022/07/02 00:57:03;;;;;;;5.47;2.40;;;14.60;99.90;;;;;;5157235;27;20562;-80
2022/07/02 00:59:29;;;;;;;6.50;2.92;;;14.50;99.90;;;;;;5156941;27;20119;-79
2022/07/02 01:01:55;;;;;;;4.57;2.53;;;14.50;99.90;;;;;;5157139;27;20080;-80
2022/07/02 01:04:23;;;;;;;4.38;2.45;;;14.50;99.90;;;;;;5138397;27;20312;-80
2022/07/02 01:06:50;;;;;;;4.50;2.60;;;14.40;99.90;;;;;;5156725;27;20054;-80
2022/07/02 01:12:02;;;;;;;4.25;2.40;;;14.60;99.90;;;;;;5156899;27;20042;-80
2022/07/02 01:14:28;;;;;;;4.97;2.47;;;14.40;99.90;;;;;;5156853;27;20099;-80
2022/07/02 01:16:55;;;;;;;4.87;2.83;;;14.40;99.90;;;;;;5156803;27;20047;-80
2022/07/02 01:19:22;;;;;;;4.53;2.22;;;14.40;99.90;;;;;;5138388;27;20436;-80
2022/07/02 01:22:06;;;;;;;;;;;14.30;99.90;;;;;;5157191;27;20125;-80
2022/07/02 01:24:31;;;;;;;5.63;2.65;;;14.30;99.90;;;;;;5156643;27;19919;-80
2022/07/02 01:26:57;;;;;;;5.23;2.87;;;14.30;99.90;;;;;;5156588;27;20062;-80
2022/07/02 01:29:23;;;;;;;5.50;2.70;;;14.30;99.90;;;;;;5138296;27;20129;-80
2022/07/02 01:31:48;;;;;;;4.95;3.10;;;14.20;99.90;;;;;;5156508;27;20053;-80
2022/07/02 01:34:14;;;;;;;4.27;2.60;;;14.20;99.90;;;;;;5156679;27;20039;-80
2022/07/02 01:36:39;;;;;;;4.15;2.30;;;14.20;99.90;;;;;;5137982;27;20050;-80
2022/07/02 01:39:05;;;;;;;4.80;2.80;;;14.20;99.90;;;;;;5156340;27;20043;-80
2022/07/02 01:41:40;;;;;;;7.27;3.00;;;14.10;99.90;;;;;;5156196;27;20114;-80
2022/07/02 01:44:08;;;;;;;6.72;2.90;;;14.10;99.90;;;;;;5156270;27;20085;-80
2022/07/02 01:46:35;;;;;;;4.15;2.70;;;14.30;99.90;;;;;;5156662;27;20386;-80
2022/07/02 01:49:00;;;;;;;;;;;14.10;99.90;;;;;;5156979;27;20050;-80
2022/07/02 01:51:26;;;;;;;3.70;2.50;;;14.10;99.90;;;;;;5156408;27;20351;-80
2022/07/02 01:53:51;;;;;;;4.55;3.03;;;14.00;99.90;;;;;;5156359;27;20070;-80
2022/07/02 01:56:17;;;;;;;4.32;2.85;;;14.00;99.90;;;;;;5156042;27;20095;-80
2022/07/02 01:58:43;;;;;;;4.30;2.60;;;14.00;99.90;;;;;;5155886;27;20039;-80
2022/07/02 02:01:09;;;;;;;5.78;2.60;;;13.90;99.90;;;;;;5156025;27;20499;-80
2022/07/02 02:03:35;;;;;;;6.85;2.78;;;14.00;99.90;;;;;;5156046;27;20089;-80
2022/07/02 02:06:01;;;;;;;5.90;3.10;;;14.20;99.90;;;;;;5155966;27;20475;-80
2022/07/02 02:08:27;;;;;;;4.25;2.90;;;13.90;99.90;;;;;;5137508;27;20062;-81
2022/07/02 02:10:52;;;;;;;6.13;3.17;;;14.00;99.90;;;;;;5155803;27;20039;-81
2022/07/02 02:13:18;;;;;;;6.43;3.30;;;13.80;99.90;;;;;;5155757;27;20061;-81
2022/07/02 02:15:43;;;;;;;5.93;3.10;;;13.80;99.90;;;;;;5155761;27;20043;-81
2022/07/02 02:18:09;;;;;;;6.38;3.67;;;14.20;99.90;;;;;;5155714;27;20447;-81
2022/07/02 02:20:35;;;;;;;5.28;3.30;;;13.80;99.90;;;;;;5155280;27;20121;-79
2022/07/02 02:23:04;;;;;;;5.13;3.25;;;13.70;99.90;;;;;;5155661;27;20099;-78
2022/07/02 02:25:33;;;;;;;5.68;3.65;;;13.70;99.90;;;;;;5121062;27;20099;-78
2022/07/02 02:27:59;;;;;;;5.10;3.65;;;13.70;99.90;;;;;;5155437;27;20159;-78
2022/07/02 02:30:25;;;;;;;5.70;3.50;;;13.60;99.90;;;;;;5155573;27;20039;-79
2022/07/02 02:32:51;;;;;;;5.57;3.93;;;13.90;99.90;;;;;;5155603;27;20068;-78
2022/07/02 02:35:17;;;;;;;6.07;3.80;;;13.60;99.90;;;;;;5155490;27;20423;-78
2022/07/02 02:37:43;;;;;;;6.60;3.47;;;13.60;99.90;;;;;;5155421;27;20043;-81
2022/07/02 02:40:09;;;;;;;4.80;3.70;;;13.60;99.90;;;;;;5136937;27;20648;-81
2022/07/02 02:42:35;;;;;;;7.50;4.23;;;13.60;99.90;;;;;;5155345;27;20038;-81
2022/07/02 02:45:00;;;;;;;9.00;3.93;;;13.60;99.90;;;;;;5155706;27;20423;-80
2022/07/02 02:47:26;;;;;;;6.93;4.07;;;13.60;99.90;;;;;;5155367;27;20179;-81
2022/07/02 02:49:51;;;;;;;8.43;4.07;;;13.50;99.90;;;;;;5158276;27;20472;-80
2022/07/02 02:52:17;;;;;;;7.40;4.40;;;13.70;99.90;;;;;;5159689;27;20049;-80
2022/07/02 02:54:43;;;;;;;7.20;4.20;;;13.50;99.90;;;;;;5159345;27;20046;-80
2022/07/02 02:57:09;;;;;;;6.18;4.05;;;13.50;99.90;;;;;;5159522;27;20047;-80
2022/07/02 02:59:35;;;;;;;8.33;3.87;;;13.50;99.90;;;;;;5159436;27;20467;-80
2022/07/02 03:02:01;;;;;;;6.72;4.45;;;13.40;99.90;;;;;;5141383;27;20043;-80
2022/07/02 03:04:26;;;;;;;6.13;3.88;;;13.40;99.90;;;;;;5159496;27;20095;-81
2022/07/02 03:06:52;;;;;;;6.20;4.10;;;13.40;99.90;;;;;;5159313;27;20094;-80
2022/07/02 03:09:17;;;;;;;5.63;3.97;;;13.40;99.90;;;;;;5159497;27;20050;-80
2022/07/02 03:11:43;;;;;;;6.35;4.85;;;13.40;99.90;;;;;;5159250;27;20046;-80
2022/07/02 03:14:08;;;;;;;6.30;4.32;;;13.30;99.90;;;;;;5159768;27;20085;-80
2022/07/02 03:16:34;;;;;;;6.87;4.27;;;13.30;99.90;;;;;;5140656;27;20106;-80
2022/07/02 03:18:59;;;;;;;8.57;4.38;;;13.30;99.90;;;;;;5159103;27;20125;-80
2022/07/02 03:21:25;;;;;;;9.27;5.10;;;13.30;99.90;;;;;;5159304;27;20046;-80
2022/07/02 03:23:51;;;;;;;5.53;4.05;;;13.30;99.90;;;;;;5159104;27;20078;-80
2022/07/02 03:26:17;;;;;;;5.95;4.30;;;13.30;99.90;;;;;;5158669;27;20547;-80
2022/07/02 03:28:43;;;;;;;8.25;4.60;;;13.20;99.90;;;;;;5140708;27;20047;-80
2022/07/02 03:31:08;;;;;;;6.60;4.05;;;13.30;99.90;;;;;;5140813;27;20133;-80
2022/07/02 03:33:34;;;;;;;4.60;4.13;;;13.30;99.90;;;;;;5158886;27;20499;-80
2022/07/02 03:35:59;;;;;;;10.10;4.90;;;13.30;99.90;;;;;;5158804;27;20042;-80
2022/07/02 03:38:25;;;;;;;6.90;4.85;;;13.20;99.90;;;;;;5158878;27;20043;-80
2022/07/02 03:40:51;;;;;;;8.18;4.82;;;13.20;99.90;;;;;;5158621;27;20364;-80
2022/07/02 03:43:16;;;;;;;6.43;4.53;;;13.30;99.90;;;;;;5158644;27;20042;-80
2022/07/02 03:45:42;;;;;;;10.60;5.03;;;13.40;99.90;;;;;;5141023;27;20094;-80
2022/07/02 03:48:07;;;;;;;6.35;4.53;;;13.20;99.90;;;;;;5158873;27;20042;-80
2022/07/02 03:50:37;;;;;;;5.82;4.47;;;13.20;99.90;;;;;;5158821;27;20039;-80
2022/07/02 03:53:04;;;;;;;9.68;4.75;;;13.30;99.90;;;;;;5158533;27;20497;-80
2022/07/02 03:55:30;;;;;;;5.53;4.45;;;13.20;99.90;;;;;;5158407;27;20043;-80
2022/07/02 03:57:55;;;;;;;4.93;4.35;;;13.50;99.90;;;;;;5158321;27;20043;-80
2022/07/02 04:00:21;;;;;;;9.03;4.60;;;13.30;99.90;;;;;;5158685;27;20043;-80
2022/07/02 04:02:46;;;;;;;8.98;4.78;;;13.30;99.90;;;;;;5158315;27;20043;-80
2022/07/02 04:05:12;;;;;;;7.55;5.05;;;13.30;99.90;;;;;;5158259;27;20047;-80
2022/07/02 04:07:38;;;;;;;5.17;4.53;;;13.30;99.90;;;;;;5139832;27;20053;-80
2022/07/02 04:10:04;;;;;;;6.05;4.43;;;13.30;99.90;;;;;;5139611;27;20084;-80
2022/07/02 04:12:30;;;;;;;7.13;4.80;;;13.30;99.90;;;;;;5157951;27;20043;-80
2022/07/02 04:14:55;;;;;;;7.37;4.57;;;13.50;99.90;;;;;;5158079;27;20050;-80
2022/07/02 04:17:21;;;;;;;6.20;4.53;;;13.50;99.90;;;;;;5139547;27;20035;-80
2022/07/02 04:19:46;;;;;;;9.50;4.45;;;13.40;99.90;;;;;;5122837;27;20039;-81
2022/07/02 04:22:12;;;;;;;8.27;4.93;;;13.50;99.90;;;;;;5157948;27;20474;-80
2022/07/02 04:24:37;;;;;;;9.30;4.88;;;13.40;99.90;;;;;;5158040;27;20121;-79
2022/07/02 04:27:03;;;;;;;6.72;4.20;;;13.40;99.90;;;;;;5157831;27;20465;-80
2022/07/02 04:29:29;;;;;;;8.00;4.70;;;13.40;99.90;;;;;;5139733;27;20039;-80
2022/07/02 04:31:54;;;;;;;9.35;5.03;;;13.40;99.90;;;;;;5157983;27;20045;-80
2022/07/02 04:34:20;;;;;;;9.65;5.22;;;13.40;99.90;;;;;;5139472;27;20126;-83
2022/07/02 04:36:46;;;;;;;5.50;4.47;;;13.50;99.90;;;;;;5139309;27;20514;-81
2022/07/02 04:39:11;;;;;;;9.15;4.75;;;13.50;99.90;;;;;;5139360;27;20069;-79
2022/07/02 04:41:37;;;;;;;7.72;5.13;;;13.50;99.90;;;;;;5157590;27;20038;-80
2022/07/02 04:44:03;;;;;;;10.68;4.75;;;13.50;99.90;;;;;;5157569;27;20046;-83
2022/07/02 04:46:28;;;;;;;6.83;5.00;;;13.60;99.90;;;;;;5157792;27;20064;-80
2022/07/02 04:48:54;;;;;;;7.90;4.55;;;13.60;99.90;;;;;;5157758;27;20053;-87
2022/07/02 04:51:19;;;;;;;8.18;5.05;;;13.80;99.90;;;;;;5138623;27;20042;-81
2022/07/02 04:53:45;;;;;;;5.60;4.63;;;13.70;99.90;;;;;;5157329;27;20086;-81
2022/07/02 04:56:11;;;;;;;7.47;5.28;;;13.70;99.90;;;;;;5156989;27;20237;-82
2022/07/02 04:58:36;;;;;;;10.07;5.07;;;13.70;99.90;;;;;;5156870;27;20846;-82
2022/07/02 05:01:02;;;;;;;7.35;5.15;;;13.70;99.90;;;;;;5157090;27;20046;-83
2022/07/02 05:03:27;;;;;;;10.55;5.68;;;13.80;99.90;;;;;;5157462;27;20047;-80
2022/07/02 05:05:53;;;;;;;8.55;5.35;;;13.80;99.90;;;;;;5156925;27;20035;-80
2022/07/02 05:08:24;;;;;;;7.60;5.50;;;13.90;99.90;;;;;;5157007;27;20062;-80
2022/07/02 05:10:50;;;;;;;9.32;5.32;;;13.90;99.90;;;;;;5156927;27;20047;-80
2022/07/02 05:13:15;;;;;;;9.47;5.33;;;14.00;99.90;;;;;;5156333;27;20042;-83
2022/07/02 05:15:41;;;;;;;9.40;5.72;;;14.00;99.90;;;;;;5138409;27;20078;-81
2022/07/02 05:18:07;;;;;;;10.75;5.28;;;14.10;99.90;;;;;;5130107;27;20491;-80
2022/07/02 05:20:32;;;;;;;9.90;5.57;;;14.20;99.90;;;;;;5142162;27;20118;-78
2022/07/02 05:22:58;;;;;;;8.90;5.50;;;14.20;99.90;;;;;;5135709;27;20112;-79
2022/07/02 05:25:24;;;;;;;9.80;5.43;;;14.30;99.90;;;;;;5135374;27;20125;-79
2022/07/02 05:27:49;;;;;;;8.02;5.68;;;14.50;99.90;;;;;;5135374;27;20047;-79
2022/07/02 05:30:15;;;;;;;8.55;5.20;;;14.80;99.90;;;;;;5117520;27;20039;-79
2022/07/02 05:32:40;;;;;;;10.40;5.57;;;15.00;99.90;;;;;;5135681;27;20062;-79
2022/07/02 05:35:06;;;;;;;7.20;5.27;;;15.30;99.90;;;;;;5135564;27;20086;-78
2022/07/02 05:37:32;;;;;;;8.23;5.10;;;15.60;99.90;;;;;;5135578;27;20058;-78
2022/07/02 05:39:58;;;;;;;6.30;4.87;;;15.90;99.90;;;;;;5135335;27;20066;-78
2022/07/02 05:42:23;;;;;;;8.40;5.38;;;16.20;99.90;;;;;;5135084;27;20051;-78
2022/07/02 05:44:49;;;;;;;7.07;4.33;;;16.50;99.90;;;;;;5138079;27;20089;-78
2022/07/02 05:47:14;;;;;;;7.10;4.70;;;16.80;99.90;;;;;;5138022;27;20035;-82
2022/07/02 05:49:40;;;;;;;5.53;3.97;;;17.10;99.90;;;;;;5138053;27;20042;-80
2022/07/02 05:52:06;;;;;;;7.75;4.75;;;17.50;99.90;;;;;;5156252;27;20504;-81
2022/07/02 05:54:31;;;;;;;8.35;4.10;;;17.50;99.90;;;;;;5156334;27;20043;-82
2022/07/02 05:56:57;;;;;;;6.40;3.80;;;17.80;99.90;;;;;;5120817;27;20485;-79
2022/07/02 05:59:22;;;;;;;6.07;3.43;;;18.10;99.90;;;;;;5155940;27;20164;-80
2022/07/02 06:01:48;;;;;;;5.50;3.13;;;18.40;99.90;;;;;;5137729;27;20041;-77
2022/07/02 06:04:14;;;;;;;5.80;3.10;;;18.50;99.90;;;;;;5156363;27;20054;-84
2022/07/02 06:09:24;;;;;;;7.20;3.47;;;18.90;99.90;;;;;;5155815;27;20405;-78
2022/07/02 06:11:49;;;;;;;5.03;2.80;;;19.00;99.90;;;;;;5137637;27;20038;-79
2022/07/02 06:14:15;;;;;;;5.87;2.73;;;19.10;99.90;;;;;;5121142;27;20053;-81
2022/07/02 06:16:41;;;;;;;5.07;2.87;;;19.20;99.90;;;;;;5120412;27;20486;-83
2022/07/02 06:19:07;;;;;;;6.13;2.77;;;19.20;99.90;;;;;;5137124;27;20034;-79
2022/07/02 06:21:33;;;;;;;7.20;2.80;;;19.10;99.90;;;;;;5155636;27;20038;-83
2022/07/02 06:23:58;;;;;;;6.40;2.65;;;19.40;99.90;;;;;;5119378;27;20489;-82
2022/07/02 06:26:24;;;;;;;5.07;2.73;;;19.30;99.90;;;;;;5155480;27;20077;-79
2022/07/02 06:28:49;;;;;;;6.07;2.97;;;19.40;99.90;;;;;;5155635;27;20039;-82
2022/07/02 06:31:15;;;;;;;6.40;2.80;;;19.60;99.90;;;;;;5120307;27;20394;-86
2022/07/02 06:33:41;;;;;;;7.23;2.87;;;19.60;99.90;;;;;;5120620;27;20574;-85
2022/07/02 06:36:10;;;;;;;5.70;3.00;;;19.50;99.90;;;;;;5137243;27;20501;-82
2022/07/02 06:38:38;;;;;;;8.45;2.70;;;19.50;99.90;;;;;;5119793;27;20043;-82
2022/07/02 06:42:18;;;;;;;6.13;2.60;;;19.50;99.90;;;;;;5136613;27;20039;-84
2022/07/02 06:43:49;;;;;;;5.82;2.75;;;19.50;99.90;;;;;;5137079;27;20082;-82
2022/07/02 06:46:15;;;;;;;6.33;2.47;;;19.50;99.90;;;;;;5136952;27;20598;-82
2022/07/02 06:48:40;;;;;;;8.00;2.33;;;19.50;99.90;;;;;;5137227;27;20043;-83
2022/07/02 06:51:06;;;;;;;5.10;2.63;;;19.40;99.90;;;;;;5120186;27;20035;-82
2022/07/02 06:53:31;;;;;;;5.63;2.00;;;19.50;99.90;;;;;;5137076;27;20129;-82
2022/07/02 06:55:57;;;;;;;4.53;2.00;;;19.60;99.90;;;;;;5137764;27;20045;-82
2022/07/02 06:58:22;;;;;;;5.07;2.20;;;19.60;99.90;;;;;;5155336;27;20046;-85
2022/07/02 07:00:48;;;;;;;4.70;2.20;;;19.70;99.90;;;;;;5155232;27;20043;-86
2022/07/02 07:03:14;;;;;;;6.63;2.17;;;19.80;99.90;;;;;;5137293;27;20382;-84
2022/07/02 07:05:44;;;;;;;6.13;2.17;;;19.80;99.90;;;;;;5119862;27;20149;-81
2022/07/02 07:08:10;;;;;;;4.95;2.00;;;19.80;99.90;;;;;;5155509;27;20058;-78
2022/07/02 07:10:35;;;;;;;4.07;1.83;;;19.90;99.90;;;;;;5155139;27;20363;-77
2022/07/02 07:13:01;;;;;;;5.17;1.70;;;19.90;99.90;;;;;;5155499;27;20043;-79
2022/07/02 07:15:26;;;;;;;6.27;1.60;;;19.90;99.90;;;;;;5155069;27;20038;-79
2022/07/02 07:17:52;;;;;;;6.67;1.93;;;19.90;99.90;;;;;;5155039;27;20049;-78
2022/07/02 07:20:19;;;;;;;4.93;1.42;;;20.00;99.90;;;;;;5154970;27;20110;-80
2022/07/02 07:22:44;;;;;;;2.75;1.45;;;20.10;99.90;;;;;;5154966;27;20051;-78
2022/07/02 07:25:10;;;;;;;4.83;1.90;;;20.10;99.90;;;;;;5155115;27;20046;-79
2022/07/02 07:27:36;;;;;;;5.70;1.33;;;20.10;99.90;;;;;;5155010;27;20035;-81
2022/07/02 07:30:01;;;;;;;6.67;1.57;;;20.10;99.90;;;;;;5119570;27;20085;-78
2022/07/02 07:32:27;;;;;;;4.77;1.40;;;20.20;99.90;;;;;;5155291;27;20039;-78
2022/07/02 07:34:52;;;;;;;3.30;1.10;;;20.20;99.90;;;;;;5155949;27;20053;-77
2022/07/02 07:37:18;;;;;;;3.40;1.10;;;20.20;99.90;;;;;;5158738;27;20066;-77
2022/07/02 07:39:43;;;;;;;2.37;1.00;;;20.30;99.90;;;;;;5158740;27;20043;-77
2022/07/02 07:42:09;;;;;;;4.00;1.40;;;20.30;99.90;;;;;;5158656;27;20095;-77
2022/07/02 07:44:35;;;;;;;4.10;1.20;;;20.40;99.90;;;;;;5158568;27;20078;-80
2022/07/02 07:47:00;;;;;;;2.93;1.13;;;20.40;99.90;;;;;;5140307;27;20050;-77
2022/07/02 07:49:26;;;;;;;2.23;1.00;;;20.40;99.90;;;;;;5158710;27;20077;-79
2022/07/02 07:51:51;;;;;;;2.67;1.20;;;20.50;99.90;;;;;;5158413;27;20127;-77
2022/07/02 07:54:17;;;;;;;3.43;1.10;;;20.50;99.90;;;;;;5158433;27;20050;-79
2022/07/02 07:56:43;;;;;;;1.77;0.80;;;20.60;99.90;;;;;;5158170;27;20141;-80
2022/07/02 07:59:09;;;;;;;3.50;1.10;;;20.60;99.90;;;;;;5158133;27;20038;-77
2022/07/02 08:01:34;;;;;;;4.60;1.10;;;20.60;99.90;;;;;;5158292;27;20078;-79
2022/07/02 08:04:00;;;;;;;3.17;1.03;;;20.70;99.90;;;;;;5158154;27;20089;-80
2022/07/02 08:06:26;;;;;;;3.73;1.13;;;20.70;99.90;;;;;;5157965;27;20046;-77
2022/07/02 08:08:51;;;;;;;4.73;1.10;;;20.90;99.90;;;;;;5158168;27;20046;-79
2022/07/02 08:11:17;;;;;;;4.77;1.33;;;21.00;99.90;;;;;;5158182;27;20513;-82
2022/07/02 08:13:42;;;;;;;1.63;0.90;;;21.10;99.90;;;;;;5158089;27;20106;-76
2022/07/02 08:16:08;;;;;;;4.80;1.40;;;21.20;99.90;;;;;;5158125;27;20046;-76
2022/07/02 08:18:33;;;;;;;2.97;1.10;;;21.20;99.90;;;;;;5158007;27;20042;-77
2022/07/02 08:21:00;;;;;;;3.00;1.13;;;21.30;99.90;;;;;;5157901;27;20500;-77
2022/07/02 08:23:26;;;;;;;2.42;1.00;;;21.50;99.90;;;;;;5157820;27;20051;-78
2022/07/02 08:25:54;;;;;;;4.97;1.30;;;21.50;99.90;;;;;;5157884;27;20099;-81
2022/07/02 08:28:20;;;;;;;2.50;0.85;;;21.60;99.70;;;;;;5158104;27;20129;-77
2022/07/02 08:30:46;;;;;;;3.28;1.00;;;21.70;99.00;;;;;;5157822;27;20043;-79
2022/07/02 08:33:14;;;;;;;5.00;1.20;;;21.60;97.80;;;;;;5157717;27;20213;-79
2022/07/02 08:35:39;;;;;;;2.60;0.90;;;21.70;98.10;;;;;;5157141;27;20085;-79
2022/07/02 08:38:05;;;;;;;2.67;0.87;;;21.70;98.30;;;;;;5157556;27;20454;-80
2022/07/02 08:40:31;;;;;;;5.30;1.10;;;21.70;98.80;;;;;;5157080;27;20038;-78
2022/07/02 08:42:59;;;;;;;2.80;1.00;;;21.70;98.90;;;;;;5157362;27;20386;-78
2022/07/02 08:45:29;;;;;;;1.65;0.77;;;21.80;99.00;;;;;;5157768;27;20039;-84
2022/07/02 08:47:57;;;;;;;3.63;0.90;;;21.90;98.40;;;;;;5156443;27;20035;-79
2022/07/02 08:50:23;;;;;;;4.05;1.00;;;21.90;97.50;;;;;;5138726;27;20505;-78
2022/07/02 08:52:51;;;;;;;2.03;0.90;;;21.90;97.40;;;;;;5157331;27;20543;-78
2022/07/02 08:55:20;;;;;;;2.97;0.90;;;21.90;97.50;;;;;;5157124;27;20051;-77
2022/07/02 08:57:48;;;;;;;4.32;0.90;;;22.00;96.60;;;;;;5155546;27;20706;-78
2022/07/02 09:00:16;;;;;;;2.75;0.80;;;22.00;97.40;;;;;;5157049;27;20035;-78
2022/07/02 09:02:43;;;;;;;2.80;1.10;;;22.10;97.20;;;;;;5157128;27;20049;-78
2022/07/02 09:05:11;;;;;;;4.60;0.82;;;22.10;96.60;;;;;;5157025;27;20043;-78
2022/07/02 09:07:39;;;;;;;4.53;1.10;;;22.10;97.10;;;;;;5156710;27;20062;-78
2022/07/02 09:10:05;;;;;;;4.25;1.20;;;22.20;96.80;;;;;;5157024;27;20051;-78
2022/07/02 09:12:31;;;;;;;4.15;1.00;;;22.20;97.10;;;;;;5157356;27;20042;-79
2022/07/02 09:14:58;;;;;;;3.97;1.27;;;22.30;97.40;;;;;;5156916;27;20035;-79
2022/07/02 09:17:24;;;;;;;4.63;1.30;;;22.40;97.20;;;;;;5156852;27;20053;-79
2022/07/02 09:19:49;;;;;;;4.83;1.00;;;22.40;96.50;;;;;;5156654;27;20038;-78
2022/07/02 09:22:15;;;;;;;4.13;0.97;;;22.40;97.10;;;;;;5157225;27;20130;-78
2022/07/02 09:24:43;;;;;;;2.93;1.00;;;22.50;97.10;;;;;;5156934;27;20046;-78
2022/07/02 09:27:10;;;;;;;5.15;1.17;;;22.60;96.60;;;;;;5156694;27;20476;-79
2022/07/02 09:29:46;;;;;;;4.40;0.90;;;22.60;95.30;;;;;;5156718;27;20043;-79
2022/07/02 09:32:13;;;;;;;3.65;1.00;;;22.60;95.30;;;;;;5156551;27;20054;-79
2022/07/02 09:34:43;;;;;;;;;;;22.70;96.00;;;;;;5156478;27;20552;-79
2022/07/02 09:37:17;;;;;;;4.45;1.17;;;22.70;96.60;;;;;;5138212;27;19965;-79
2022/07/02 09:39:43;;;;;;;5.25;1.20;;;22.70;95.00;;;;;;5156658;27;20062;-79
2022/07/02 09:42:22;;;;;;;4.22;1.20;;;22.80;95.60;;;;;;5156405;27;20042;-79
2022/07/02 09:44:48;;;;;;;3.33;1.13;;;22.80;96.00;;;;;;5156369;27;20046;-79
2022/07/02 09:47:14;;;;;;;3.70;1.17;;;22.90;97.00;;;;;;5155990;27;20038;-79
2022/07/02 09:49:49;;;;;;;4.43;1.10;;;23.00;95.70;;;;;;5156208;27;20035;-79
2022/07/02 09:52:16;;;;;;;2.35;1.05;;;23.00;96.50;;;;;;5156162;27;20078;-78
2022/07/02 09:54:43;;;;;;;2.53;0.98;;;23.10;95.80;;;;;;5156066;27;20039;-79
2022/07/02 09:57:11;;;;;;;4.07;1.10;;;23.10;96.50;;;;;;5156083;27;20083;-79
2022/07/02 09:59:38;;;;;;;5.03;1.30;;;23.20;96.30;;;;;;5155778;27;20065;-79
2022/07/02 10:02:04;;;;;;;3.22;1.10;;;23.20;95.80;;;;;;5155992;27;20088;-79
2022/07/02 10:04:31;;;;;;;2.88;1.13;;;23.10;95.20;;;;;;5155984;27;20047;-79
2022/07/02 10:06:59;;;;;;;2.40;0.90;;;23.20;95.90;;;;;;5155776;27;20398;-79
2022/07/02 10:09:25;;;;;;;4.05;1.00;;;23.20;95.20;;;;;;5156462;27;20051;-79
2022/07/02 10:11:51;;;;;;;4.30;1.08;;;23.50;95.60;;;;;;5155871;27;20406;-79
2022/07/02 10:14:20;;;;;;;5.03;1.10;;;23.60;94.90;;;;;;5155645;27;20048;-78
2022/07/02 10:16:47;;;;;;;4.03;0.90;;;23.50;94.70;;;;;;5155804;27;20092;-79
2022/07/02 10:19:14;;;;;;;4.10;0.90;;;23.50;94.50;;;;;;5155629;27;20397;-79
2022/07/02 10:21:39;;;;;;;4.15;0.85;;;23.50;93.90;;;;;;5155699;27;20550;-79
2022/07/02 10:24:10;;;;;;;2.70;1.00;;;23.50;94.10;;;;;;5155633;27;20122;-79
2022/07/02 10:26:37;;;;;;;2.95;0.88;;;23.50;93.70;;;;;;5155563;27;20091;-79
2022/07/02 10:29:04;;;;;;;2.53;1.02;;;23.50;93.60;;;;;;5156045;27;20046;-79
2022/07/02 10:31:41;;;;;;;2.80;0.90;;;23.40;93.70;;;;;;5155545;27;20061;-79
2022/07/02 10:34:22;;;;;;;5.75;1.20;;;23.20;93.90;;;;;;5155807;27;20043;-79
2022/07/02 10:36:47;;;;;;;3.38;0.90;;;23.30;93.50;;;;;;5155444;27;20053;-79
2022/07/02 10:39:16;;;;;;;2.93;0.97;;;23.50;93.90;;;;;;5155281;27;20039;-79
2022/07/02 10:41:42;;;;;;;2.75;0.80;;;23.60;93.30;;;;;;5155428;27;20248;-78
2022/07/02 10:44:09;;;;;;;4.03;1.10;;;23.70;93.90;;;;;;5155758;27;20089;-79
2022/07/02 10:46:36;;;;;;;4.05;0.88;;;23.80;94.90;;;;;;5155284;27;20057;-79
2022/07/02 10:49:03;;;;;;;3.42;1.10;;;23.80;94.90;;;;;;5155418;27;20402;-79
2022/07/02 10:51:34;;;;;;;3.45;1.13;;;23.80;94.60;;;;;;5155316;27;20042;-79
2022/07/02 10:54:02;;;;;;;2.63;0.90;;;23.80;95.30;;;;;;5155359;27;20101;-79
2022/07/02 10:56:29;;;;;;;2.78;1.00;;;24.00;95.60;;;;;;5155335;27;20042;-79
2022/07/02 10:58:55;;;;;;;4.10;1.13;;;24.10;95.30;;;;;;5155622;27;20098;-79
2022/07/02 11:01:23;;;;;;;4.63;1.40;;;24.30;95.10;;;;;;5155227;27;20039;-79
2022/07/02 11:03:58;;;;;;;3.95;1.27;;;24.50;94.50;;;;;;5155225;27;20043;-79
2022/07/02 11:06:25;;;;;;;3.85;1.10;;;24.40;94.30;;;;;;5154841;27;20394;-79
2022/07/02 11:08:56;;;;;;;3.15;1.00;;;24.40;93.80;;;;;;5155595;27;20043;-79
2022/07/02 11:11:22;;;;;;;2.55;1.10;;;24.30;93.80;;;;;;5158726;27;20038;-79
2022/07/02 11:13:49;;;;;;;2.25;1.02;;;24.20;94.20;;;;;;5159309;27;20162;-79
2022/07/02 11:16:41;;;;;;;3.80;1.17;;;24.20;94.30;;;;;;5159510;27;20428;-79
2022/07/02 11:19:17;;;;;;;3.55;1.10;;;24.20;94.10;;;;;;5159111;27;20045;-79
2022/07/02 11:21:43;;;;;;;2.45;0.93;;;24.20;93.20;;;;;;5159812;27;20050;-79
2022/07/02 11:24:12;;;;;;;;;;;24.20;94.10;;;;;;5159557;27;20382;-78
2022/07/02 11:26:41;;;;;;;5.40;1.45;;;24.40;93.30;;;;;;5159057;27;19919;-79
2022/07/02 11:29:07;;;;;;;3.70;1.00;;;24.50;94.10;;;;;;5159004;27;20095;-79
2022/07/02 11:31:46;;;;;;;1.98;0.80;;;24.70;93.90;;;;;;5140675;27;20039;-78
2022/07/02 11:34:18;;;;;;;1.77;0.90;;;24.90;94.40;;;;;;5141065;27;20078;-79
2022/07/02 11:36:44;;;;;;;4.97;1.35;;;24.80;92.80;;;;;;5158732;27;20092;-79
2022/07/02 11:39:15;;;;;;;3.15;1.00;;;24.70;92.40;;;;;;5158818;27;20050;-79
2022/07/02 11:41:41;;;;;;;8.63;1.10;;;24.70;92.80;;;;;;5158805;27;20129;-79
2022/07/02 11:44:17;;;;;;;5.68;1.10;;;24.80;92.90;;;;;;5158407;27;20473;-79
2022/07/02 11:46:51;;;;;;;3.35;1.00;;;25.00;92.10;;;;;;5158703;27;20050;-79
2022/07/02 11:49:30;;;;;;;3.83;1.05;;;25.10;92.30;;;;;;5158657;27;20474;-79
2022/07/02 11:51:56;;;;;;;2.15;0.85;;;25.30;91.80;;;;;;5158854;27;20054;-79
2022/07/02 11:54:22;;;;;;;4.30;1.10;;;25.40;92.40;;;;;;5158598;27;20039;-79
2022/07/02 11:56:49;;;;;;;3.95;0.95;;;25.70;92.30;;;;;;5158256;27;20039;-79
2022/07/02 11:59:17;;;;;;;2.38;0.82;;;25.80;91.00;;;;;;5158350;27;20039;-79
2022/07/02 12:01:44;;;;;;;2.75;0.80;;;25.50;90.40;;;;;;5158404;27;20057;-79
2022/07/02 12:04:12;;;;;;;2.97;0.82;;;25.50;91.30;;;;;;5158687;27;20537;-79
2022/07/02 12:06:50;;;;;;;3.92;0.93;;;25.50;92.10;;;;;;5158182;27;20061;-79
2022/07/02 12:09:18;;;;;;;2.33;0.93;;;25.70;91.20;;;;;;5158182;27;20470;-79
2022/07/02 12:11:47;;;;;;;3.95;1.15;;;26.00;91.30;;;;;;5158633;27;20078;-79
2022/07/02 12:14:14;;;;;;;6.68;1.50;;;26.00;91.40;;;;;;5158205;27;20570;-79
2022/07/02 12:16:43;;;;;;;2.35;1.02;;;26.00;91.30;;;;;;5158151;27;20046;-78
2022/07/02 12:19:10;;;;;;;2.78;0.70;;;26.00;90.60;;;;;;5158148;27;20394;-79
2022/07/02 12:21:45;;;;;;;2.42;0.85;;;25.90;90.70;;;;;;5156453;27;20038;-79
2022/07/02 12:24:20;;;;;;;2.38;0.90;;;25.70;89.90;;;;;;5158469;27;20043;-79
2022/07/02 12:26:46;;;;;;;3.47;1.00;;;25.50;89.70;;;;;;5158250;27;20375;-79
2022/07/02 12:32:30;;;;;;;3.95;1.30;;;25.20;90.80;;;;;;5157758;27;20047;-79
2022/07/02 12:34:57;;;;;;;2.47;0.90;;;25.10;91.80;;;;;;5122824;27;20054;-78
2022/07/02 12:37:25;;;;;;;3.15;0.90;;;25.20;91.40;;;;;;5157660;27;20082;-79
2022/07/02 12:40:17;;;;;;;2.78;0.90;;;25.30;91.20;;;;;;5157735;27;20099;-79
2022/07/02 12:42:55;;;;;;;2.83;0.80;;;25.40;91.30;;;;;;5157295;27;20483;-79
2022/07/02 12:45:35;;;;;;;3.50;0.90;;;25.30;89.90;;;;;;5157563;27;20087;-79
2022/07/02 12:48:03;;;;;;;1.98;0.75;;;25.30;90.90;;;;;;5157494;27;20054;-79
2022/07/02 12:50:32;;;;;;;2.85;0.90;;;25.10;90.20;;;;;;5157485;27;20047;-79
2022/07/02 12:53:05;;;;;;;3.63;0.95;;;25.00;90.70;;;;;;5157327;27;20039;-79
2022/07/02 12:55:37;;;;;;;3.95;1.10;;;25.00;90.80;;;;;;5157657;27;20038;-79